KSDF/SDF METAR and TAF weather

Enter ICAO airport designator
Station Type Date Time Source
KSDF METAR 2019/10/18 10:56 UTC NOAA

KSDF 181056Z 36003KT 10SM CLR 06/04 A3007 RMK AO2 SLP182 T00610039


Station Type Date Time Source
KSDF Decoded METAR 2019/10/18 10:56 UTC NOAA

STANDIFORD FIELD, KY, United States (KSDF) 38-11N 085-44W 146M
Oct 18, 2019 - 06:56 AM EDT / 2019.10.18 1056 UTC
Wind: from the N (360 degrees) at 3 MPH (3 KT):0
Visibility: 10 mile(s):0
Sky conditions: clear
Temperature: 43.0 F (6.1 C)
Dew Point: 39.0 F (3.9 C)
Relative Humidity: 85%
Pressure (altimeter): 30.07 in. Hg (1018 hPa)
ob: KSDF 181056Z 36003KT 10SM CLR 06/04 A3007 RMK AO2 SLP182 T00610039
cycle: 11

Station Type Date Time Source
KSDF TAF 2019/10/18 12:22 UTC NOAA

TAF KSDF 181120Z 1812/1918 VRB03KT P6SM FEW250
FM181700 13005KT P6SM SKC
FM190000 09005KT P6SM SKC

Example: see airport list